Time;durP1;ratioP1;P1;durP2;ratioP2;P2;SDS_P1;SDS_P2;PMS_P1;PMS_P2;Temp;Humidity;BMP_temperature;BMP_pressure;BME280_temperature;BME280_humidity;BME280_pressure;Samples;Min_cycle;Max_cycle;Signal;HPM_P1;HPM_P2
2022/09/29 06:08:15;;;;;;;9.27;3.22;;;;;;;5.61;100.00;97507.75;5128407;27;20361;-75
2022/09/29 06:10:41;;;;;;;5.65;2.70;;;;;;;5.76;100.00;97520.34;5130470;28;20043;-75
2022/09/29 06:13:08;;;;;;;6.35;3.08;;;;;;;5.94;100.00;97522.56;5126139;28;20490;-75
2022/09/29 06:15:34;;;;;;;3.65;2.70;;;;;;;6.14;100.00;97531.69;5126712;28;20153;-75
2022/09/29 06:18:01;;;;;;;5.28;2.60;;;;;;;6.26;100.00;97528.41;5123554;28;20067;-77
2022/09/29 06:20:27;;;;;;;6.95;3.28;;;;;;;6.31;100.00;97517.88;5128504;28;20055;-76
2022/09/29 06:22:54;;;;;;;5.30;2.65;;;;;;;6.47;100.00;97530.22;5128023;28;20054;-76
2022/09/29 06:25:23;;;;;;;4.57;2.85;;;;;;;6.36;100.00;97510.03;5128795;28;20048;-75
2022/09/29 06:27:49;;;;;;;8.43;3.03;;;;;;;6.57;100.00;97519.06;5126035;27;20042;-76
2022/09/29 06:30:16;;;;;;;5.43;2.80;;;;;;;6.57;100.00;97508.28;5127745;28;20051;-76
2022/09/29 06:32:43;;;;;;;4.13;3.00;;;;;;;6.60;100.00;97500.59;5127574;28;20047;-76
2022/09/29 06:37:55;;;;;;;5.07;2.83;;;;;;;6.85;100.00;97514.44;5128489;28;20512;-76
2022/09/29 06:40:23;;;;;;;5.50;3.17;;;;;;;7.06;100.00;97507.22;5120742;28;20130;-76
2022/09/29 06:42:50;;;;;;;4.50;2.75;;;;;;;7.19;100.00;97536.16;5124641;28;20051;-75
2022/09/29 06:45:17;;;;;;;5.85;2.50;;;;;;;7.09;100.00;97521.16;5128341;28;20051;-76
2022/09/29 06:47:43;;;;;;;4.88;2.95;;;;;;;7.34;100.00;97530.59;5128139;28;20050;-76
2022/09/29 06:50:10;;;;;;;6.10;2.80;;;;;;;7.23;100.00;97535.53;5128254;28;20047;-76
2022/09/29 06:52:36;;;;;;;5.95;2.90;;;;;;;7.25;100.00;97554.25;5127309;28;20047;-76
2022/09/29 06:55:03;;;;;;;11.88;3.45;;;;;;;7.19;100.00;97544.25;5128278;28;20057;-76
2022/09/29 06:57:31;;;;;;;8.82;3.30;;;;;;;7.34;100.00;97577.38;5122308;28;20051;-76
2022/09/29 06:59:57;;;;;;;4.28;3.08;;;;;;;7.29;100.00;97562.78;5126438;28;20414;-76
2022/09/29 07:02:24;;;;;;;5.07;3.35;;;;;;;7.44;100.00;97564.28;5127080;28;20506;-76
2022/09/29 07:04:50;;;;;;;4.30;2.67;;;;;;;7.70;100.00;97572.69;5127504;28;20134;-76
2022/09/29 07:07:17;;;;;;;4.68;2.90;;;;;;;7.52;100.00;97541.63;5127834;27;20494;-76
2022/09/29 07:09:44;;;;;;;7.15;3.10;;;;;;;7.59;100.00;97549.78;5127841;27;20055;-76
2022/09/29 07:12:11;;;;;;;5.18;3.53;;;;;;;7.68;100.00;97543.13;5127207;27;20062;-76
2022/09/29 07:14:39;;;;;;;9.75;2.78;;;;;;;7.88;100.00;97535.03;5119134;27;20482;-76
2022/09/29 07:17:05;;;;;;;6.47;3.33;;;;;;;7.92;100.00;97549.00;5122661;27;20051;-76
2022/09/29 07:19:32;;;;;;;4.22;2.80;;;;;;;7.90;100.00;97548.34;5114060;27;20051;-76
2022/09/29 07:21:59;;;;;;;5.93;3.05;;;;;;;8.10;100.00;97576.25;5113990;27;20094;-76
2022/09/29 07:24:25;;;;;;;5.57;3.03;;;;;;;7.87;100.00;97540.66;5095517;27;20052;-76
2022/09/29 07:26:52;;;;;;;6.35;2.88;;;;;;;8.14;100.00;97579.38;5093531;28;20059;-76
2022/09/29 07:29:18;;;;;;;5.30;2.80;;;;;;;8.26;100.00;97557.91;5097323;28;20052;-76
2022/09/29 07:31:46;;;;;;;3.78;2.53;;;;;;;8.37;100.00;97559.16;5103697;28;20140;-76
2022/09/29 07:34:13;;;;;;;4.07;2.58;;;;;;;8.35;100.00;97559.38;5112088;28;20066;-76
2022/09/29 07:36:39;;;;;;;4.05;2.33;;;;;;;8.61;100.00;97577.50;5114115;28;20058;-76
2022/09/29 07:39:06;;;;;;;3.22;2.47;;;;;;;8.54;100.00;97570.44;5113619;28;20501;-76
2022/09/29 07:41:32;;;;;;;5.00;2.28;;;;;;;8.54;100.00;97559.59;5113502;28;20438;-76
2022/09/29 07:43:59;;;;;;;4.03;2.45;;;;;;;8.78;100.00;97583.28;5111718;28;20496;-75
2022/09/29 07:46:26;;;;;;;6.03;2.80;;;;;;;8.56;100.00;97555.63;5113097;28;20052;-76
2022/09/29 07:48:54;;;;;;;10.65;2.58;;;;;;;8.68;100.00;97581.00;5108549;28;20265;-76
2022/09/29 07:51:20;;;;;;;4.68;2.90;;;;;;;8.72;100.00;97569.78;5100944;28;20059;-76
2022/09/29 07:53:47;;;;;;;3.85;2.55;;;;;;;8.81;100.00;97584.75;5092403;28;20052;-76
2022/09/29 07:56:17;;;;;;;8.82;2.72;;;;;;;9.13;100.00;97599.22;5093092;28;20353;-76
2022/09/29 07:58:44;;;;;;;5.43;2.28;;;;;;;9.31;100.00;97587.69;5092965;28;20047;-76
2022/09/29 08:01:13;;;;;;;5.15;2.25;;;;;;;9.57;100.00;97583.19;5110326;28;20059;-76
2022/09/29 08:03:41;;;;;;;12.70;2.47;;;;;;;9.29;100.00;97572.69;5112699;28;20456;-76
2022/09/29 08:06:09;;;;;;;6.95;2.90;;;;;;;9.27;100.00;97574.78;5095576;28;20043;-76
2022/09/29 08:08:36;;;;;;;4.85;2.40;;;;;;;9.49;100.00;97597.84;5105689;28;20044;-76
2022/09/29 08:11:04;;;;;;;5.70;2.55;;;;;;;9.34;100.00;97575.59;5113293;28;20506;-76
2022/09/29 08:13:31;;;;;;;5.60;2.20;;;;;;;9.53;100.00;97571.13;5112302;28;20052;-76
2022/09/29 08:15:59;;;;;;;5.78;2.40;;;;;;;9.55;100.00;97588.00;5109726;28;20050;-76
2022/09/29 08:18:26;;;;;;;4.38;2.58;;;;;;;9.59;100.00;97567.53;5112685;28;20097;-76
2022/09/29 08:20:53;;;;;;;7.15;2.35;;;;;;;9.74;100.00;97580.81;5112878;28;20070;-76
2022/09/29 08:23:21;;;;;;;6.95;2.05;;;;;;;9.89;100.00;97575.91;5104786;28;20055;-76
2022/09/29 08:25:48;;;;;;;3.15;2.00;;;;;;;9.80;100.00;97584.50;5098126;28;20540;-76
2022/09/29 08:28:15;;;;;;;6.50;2.67;;;;;;;9.86;100.00;97594.50;5092857;28;20411;-76
2022/09/29 08:30:41;;;;;;;4.40;1.92;;;;;;;9.91;100.00;97570.25;5095639;28;20044;-76
2022/09/29 08:33:13;;;;;;;2.85;2.25;;;;;;;10.18;100.00;97587.16;5104730;28;20477;-76
2022/09/29 08:35:40;;;;;;;8.35;2.40;;;;;;;10.36;100.00;97605.44;5112249;28;20055;-75
2022/09/29 08:38:06;;;;;;;9.80;2.50;;;;;;;10.51;100.00;97599.69;5112770;28;20067;-76
2022/09/29 08:40:35;;;;;;;4.93;2.13;;;;;;;10.27;100.00;97585.03;5109068;28;20506;-76
2022/09/29 08:43:09;;;;;;;3.80;2.13;;;;;;;10.46;100.00;97583.19;5110109;28;20055;-76
2022/09/29 08:45:42;;;;;;;2.88;2.30;;;;;;;10.36;100.00;97589.16;5110731;28;20058;-76
2022/09/29 08:48:13;;;;;;;4.72;2.05;;;;;;;10.37;100.00;97589.97;5104004;28;20486;-76
2022/09/29 08:50:45;;;;;;;10.57;2.22;;;;;;;10.51;100.00;97590.69;5112513;28;20050;-76
2022/09/29 08:53:16;;;;;;;7.40;2.25;;;;;;;10.49;100.00;97581.94;5110241;27;20414;-76
2022/09/29 08:55:51;;;;;;;3.38;1.95;;;;;;;10.73;100.00;97615.56;5110395;28;20044;-76
2022/09/29 08:58:18;;;;;;;8.75;3.65;;;;;;;10.95;100.00;97599.66;5112457;28;20071;-76
2022/09/29 09:00:55;;;;;;;2.20;1.67;;;;;;;10.83;99.84;97583.25;5111906;28;20043;-76
2022/09/29 09:03:37;;;;;;;3.47;1.85;;;;;;;10.90;97.34;97599.50;5111265;28;20044;-76
2022/09/29 09:06:22;;;;;;;5.90;2.00;;;;;;;10.86;95.78;97596.41;5111990;27;20055;-76
2022/09/29 09:09:18;;;;;;;6.72;2.03;;;;;;;11.02;93.22;97600.44;5109018;28;20509;-76
2022/09/29 09:12:00;;;;;;;3.95;1.38;;;;;;;11.11;93.74;97618.09;5097900;28;20078;-76
2022/09/29 09:14:44;;;;;;;2.75;1.58;;;;;;;11.08;94.07;97585.94;5091148;28;20047;-76
2022/09/29 09:17:25;;;;;;;8.07;1.77;;;;;;;11.23;96.12;97592.84;5090254;28;20043;-76
2022/09/29 09:20:09;;;;;;;2.58;1.65;;;;;;;11.30;92.40;97597.16;5091458;28;20058;-76
2022/09/29 09:22:46;;;;;;;4.03;1.85;;;;;;;11.13;90.20;97583.34;5101821;28;20077;-76
2022/09/29 09:25:21;;;;;;;3.40;1.63;;;;;;;11.32;90.28;97616.81;5096291;28;20078;-76
2022/09/29 09:27:56;;;;;;;2.25;1.40;;;;;;;11.57;91.68;97609.63;5106785;28;20482;-76
2022/09/29 09:30:23;;;;;;;2.03;1.50;;;;;;;11.81;89.98;97597.75;5111094;28;20052;-76
2022/09/29 09:32:56;;;;;;;4.65;1.83;;;;;;;11.93;85.87;97594.28;5110949;28;20547;-76
2022/09/29 09:35:32;;;;;;;4.72;1.83;;;;;;;11.93;85.82;97603.28;5111474;28;20104;-76
2022/09/29 09:38:02;;;;;;;5.30;1.90;;;;;;;11.98;85.34;97611.59;5111334;28;20046;-76
2022/09/29 09:40:36;;;;;;;2.90;1.60;;;;;;;12.00;85.19;97628.53;5104736;28;20059;-76
2022/09/29 09:43:09;;;;;;;4.03;1.70;;;;;;;12.06;91.22;97620.47;5109703;28;20059;-76
2022/09/29 09:45:42;;;;;;;2.75;1.65;;;;;;;12.03;89.44;97605.44;5098746;28;20056;-76
2022/09/29 09:48:13;;;;;;;2.00;1.50;;;;;;;11.99;87.33;97613.22;5108460;28;20052;-76
2022/09/29 09:50:42;;;;;;;2.30;1.70;;;;;;;12.03;85.61;97614.44;5111123;28;20043;-76
2022/09/29 09:53:15;;;;;;;4.68;1.60;;;;;;;12.23;84.57;97632.38;5110539;28;20060;-76
2022/09/29 09:55:42;;;;;;;6.00;1.70;;;;;;;12.00;85.35;97604.00;5109968;28;20056;-76
2022/09/29 09:58:37;;;;;;;2.30;1.50;;;;;;;12.16;84.55;97629.75;5109752;28;20551;-76
2022/09/29 10:01:05;;;;;;;5.57;1.60;;;;;;;12.01;87.55;97611.13;5111138;28;20047;-77
2022/09/29 10:03:32;;;;;;;13.32;2.13;;;;;;;12.12;85.60;97612.22;5109538;28;20055;-76
2022/09/29 10:05:59;;;;;;;2.15;1.33;;;;;;;11.98;88.34;97618.91;5111131;28;20088;-76
2022/09/29 10:08:29;;;;;;;5.75;1.52;;;;;;;11.90;85.18;97624.66;5109295;28;20475;-76
2022/09/29 10:10:57;;;;;;;3.95;1.70;;;;;;;12.13;86.30;97613.03;5108182;28;20139;-76
2022/09/29 10:13:25;;;;;;;8.27;1.50;;;;;;;12.27;83.42;97639.03;5109890;28;20054;-76
2022/09/29 10:15:56;;;;;;;7.93;1.52;;;;;;;12.18;80.62;97627.63;5102126;28;20056;-76
2022/09/29 10:18:29;;;;;;;3.88;1.13;;;;;;;12.29;83.00;97617.00;5110601;28;20062;-76
2022/09/29 10:20:56;;;;;;;1.98;1.10;;;;;;;12.38;80.13;97619.13;5091922;28;20056;-76
2022/09/29 10:23:31;;;;;;;4.30;1.77;;;;;;;12.47;80.33;97635.97;5089650;28;20059;-76
2022/09/29 10:26:01;;;;;;;4.30;1.98;;;;;;;12.36;79.35;97621.28;5101448;28;20058;-76
2022/09/29 10:28:39;;;;;;;6.00;2.05;;;;;;;12.49;80.77;97619.38;5110507;28;20040;-76
2022/09/29 10:31:18;;;;;;;4.80;1.70;;;;;;;12.92;83.14;97640.06;5106359;28;20048;-76
2022/09/29 10:33:51;;;;;;;3.22;1.75;;;;;;;12.88;75.83;97625.22;5106818;28;20121;-76
2022/09/29 10:36:20;;;;;;;3.75;1.73;;;;;;;12.90;78.24;97614.88;5108298;28;20051;-76
2022/09/29 10:38:49;;;;;;;5.38;1.98;;;;;;;12.77;77.83;97607.78;5090431;28;20123;-76
2022/09/29 10:41:18;;;;;;;3.45;1.67;;;;;;;13.09;77.42;97604.69;5103354;28;20050;-76
2022/09/29 10:43:46;;;;;;;7.13;1.95;;;;;;;13.41;75.75;97612.47;5109426;28;20047;-76
2022/09/29 10:46:36;;;;;;;5.72;1.77;;;;;;;13.47;78.44;97616.97;5110750;28;20411;-76
2022/09/29 10:49:13;;;;;;;4.32;1.92;;;;;;;13.44;76.04;97610.13;5110061;28;20043;-77
2022/09/29 10:51:40;;;;;;;1.88;1.20;;;;;;;13.36;76.90;97615.13;5110950;28;20082;-76
2022/09/29 10:54:08;;;;;;;4.30;1.80;;;;;;;13.36;77.29;97634.22;5108284;28;20074;-76
2022/09/29 10:56:34;;;;;;;4.25;1.90;;;;;;;13.22;75.88;97628.16;5114172;28;20056;-76
2022/09/29 10:59:03;;;;;;;3.78;2.13;;;;;;;13.31;75.42;97629.47;5114477;28;20052;-76
2022/09/29 11:01:32;;;;;;;2.53;1.20;;;;;;;13.52;75.99;97647.13;5114366;28;20059;-76
2022/09/29 11:04:03;;;;;;;2.92;1.58;;;;;;;13.63;72.96;97654.44;5103912;28;20055;-76
2022/09/29 11:06:32;;;;;;;4.25;1.42;;;;;;;13.59;75.32;97623.25;5111958;28;20063;-76
2022/09/29 11:09:01;;;;;;;1.95;1.38;;;;;;;13.50;72.30;97623.84;5107318;28;20413;-76
2022/09/29 11:11:30;;;;;;;4.65;1.77;;;;;;;13.47;71.22;97622.44;5111758;28;20413;-76
2022/09/29 11:13:58;;;;;;;4.97;1.52;;;;;;;13.46;72.29;97615.34;5112172;28;20047;-76
2022/09/29 11:16:28;;;;;;;4.20;1.50;;;;;;;13.90;73.63;97647.59;5112762;28;20047;-76
2022/09/29 11:18:58;;;;;;;6.55;1.55;;;;;;;13.77;72.63;97646.78;5113944;28;20517;-76
2022/09/29 11:21:51;;;;;;;3.97;1.73;;;;;;;13.85;70.89;97642.03;5113967;27;20047;-77
2022/09/29 11:24:30;;;;;;;5.47;1.27;;;;;;;13.75;71.43;97635.28;5109117;28;20052;-76
2022/09/29 11:27:05;;;;;;;3.40;1.60;;;;;;;13.48;71.86;97650.59;5107671;28;20066;-76
2022/09/29 11:29:41;;;;;;;3.25;1.33;;;;;;;13.52;72.20;97625.28;5113741;28;20039;-77
2022/09/29 11:32:24;;;;;;;4.65;1.40;;;;;;;13.75;69.32;97651.69;5113461;27;20055;-76
2022/09/29 11:35:04;;;;;;;3.47;1.42;;;;;;;13.92;68.39;97620.88;5113866;28;20055;-76
2022/09/29 11:37:46;;;;;;;3.95;1.67;;;;;;;14.14;67.54;97634.66;5113594;28;20058;-77
2022/09/29 11:40:23;;;;;;;3.72;1.40;;;;;;;14.37;66.54;97635.63;5108766;28;20069;-77
2022/09/29 11:43:01;;;;;;;5.03;1.48;;;;;;;14.37;67.64;97630.97;5107940;28;20051;-77
2022/09/29 11:45:35;;;;;;;3.85;1.35;;;;;;;14.36;67.18;97629.28;5111819;28;20043;-76
2022/09/29 11:48:43;;;;;;;2.42;1.40;;;;;;;14.56;67.77;97627.97;5113133;28;20136;-77
2022/09/29 11:51:20;;;;;;;4.30;1.40;;;;;;;14.30;68.06;97620.19;5103412;28;20052;-77
2022/09/29 11:54:03;;;;;;;6.78;1.27;;;;;;;14.47;68.37;97619.38;5092500;28;20048;-77
2022/09/29 11:56:41;;;;;;;6.22;1.58;;;;;;;14.94;65.96;97634.66;5108103;28;20052;-77
2022/09/29 11:59:26;;;;;;;6.57;1.55;;;;;;;15.01;65.65;97646.25;5109132;28;20051;-77
2022/09/29 12:02:16;;;;;;;6.03;1.42;;;;;;;14.84;66.34;97649.84;5112193;28;20509;-77
2022/09/29 12:04:56;;;;;;;1.50;0.98;;;;;;;14.60;66.33;97640.09;5109564;28;20051;-77
2022/09/29 12:07:37;;;;;;;7.13;1.50;;;;;;;14.89;67.90;97637.28;5112962;28;20054;-76
2022/09/29 12:10:32;;;;;;;5.35;1.40;;;;;;;15.10;66.94;97636.53;5111953;28;20043;-76
2022/09/29 12:13:10;;;;;;;4.00;1.55;;;;;;;15.04;64.41;97612.91;5102936;28;20040;-76
2022/09/29 12:15:46;;;;;;;3.28;1.35;;;;;;;15.11;62.45;97616.28;5091425;28;20051;-76
2022/09/29 12:18:18;;;;;;;3.72;1.27;;;;;;;15.12;63.30;97622.59;5092612;28;20059;-76
2022/09/29 12:20:48;;;;;;;2.65;1.20;;;;;;;15.15;60.62;97642.06;5108844;28;20507;-76
2022/09/29 12:23:20;;;;;;;1.83;1.13;;;;;;;15.12;60.47;97617.13;5110719;28;20414;-77
2022/09/29 12:25:56;;;;;;;3.42;1.20;;;;;;;15.25;63.02;97629.59;5112705;28;20440;-76
2022/09/29 12:28:30;;;;;;;3.72;1.20;;;;;;;15.44;58.40;97603.56;5097302;28;20052;-76
2022/09/29 12:31:02;;;;;;;2.28;1.00;;;;;;;15.42;60.17;97627.66;5092593;28;20449;-76
2022/09/29 12:33:34;;;;;;;3.38;1.50;;;;;;;15.47;60.14;97622.22;5091227;28;20083;-76
2022/09/29 12:39:08;;;;;;;4.90;1.10;;;;;;;14.97;60.23;97613.06;5111609;28;20522;-76
2022/09/29 12:41:41;;;;;;;2.60;1.40;;;;;;;14.85;61.20;97591.28;5109610;28;20637;-76
2022/09/29 12:44:16;;;;;;;1.23;0.85;;;;;;;15.08;59.15;97607.75;5091518;28;20475;-76
2022/09/29 12:46:48;;;;;;;1.90;1.00;;;;;;;15.22;61.78;97615.34;5092178;28;20055;-76
2022/09/29 12:49:19;;;;;;;4.38;1.20;;;;;;;15.26;58.66;97618.41;5091918;28;20054;-76
2022/09/29 12:51:48;;;;;;;4.05;1.35;;;;;;;15.03;61.04;97600.31;5091191;28;20048;-77
2022/09/29 12:54:21;;;;;;;3.15;1.10;;;;;;;14.85;58.76;97594.03;5111414;28;20048;-76
2022/09/29 12:56:55;;;;;;;4.32;1.02;;;;;;;14.86;60.01;97611.28;5106410;28;20074;-77
2022/09/29 12:59:36;;;;;;;1.88;0.95;;;;;;;14.99;56.53;97601.88;5103259;28;20048;-76
2022/09/29 13:02:17;;;;;;;2.72;1.20;;;;;;;14.97;57.46;97621.28;5112056;28;20060;-76
2022/09/29 13:05:00;;;;;;;2.35;0.90;;;;;;;14.89;57.42;97601.72;5111888;28;20055;-77
2022/09/29 13:08:01;;;;;;;4.25;0.98;;;;;;;15.06;58.72;97623.59;5109718;28;20055;-77
2022/09/29 13:10:53;;;;;;;4.25;1.02;;;;;;;15.01;53.65;97619.72;5103956;28;20051;-77
2022/09/29 13:13:47;;;;;;;2.88;1.20;;;;;;;15.24;55.31;97622.50;5091132;28;20052;-77
2022/09/29 13:16:24;;;;;;;2.20;1.48;;;;;;;14.88;54.95;97608.28;5090226;28;20044;-77
2022/09/29 13:19:23;;;;;;;3.28;0.90;;;;;;;15.27;54.46;97627.47;5091546;28;20054;-77
2022/09/29 13:22:05;;;;;;;2.13;1.08;;;;;;;15.30;56.53;97627.78;5080441;28;20557;-77
2022/09/29 13:24:45;;;;;;;2.13;1.33;;;;;;;14.94;53.28;97623.72;5106747;28;20074;-77
2022/09/29 13:27:31;;;;;;;3.22;0.88;;;;;;;15.07;52.91;97638.94;5098233;28;20058;-76
2022/09/29 13:30:05;;;;;;;1.17;0.82;;;;;;;14.99;53.02;97621.84;5111290;28;20054;-77
2022/09/29 13:32:39;;;;;;;2.58;0.55;;;;;;;15.18;52.43;97635.28;5110720;28;20130;-77
2022/09/29 13:35:14;;;;;;;1.67;0.70;;;;;;;14.69;51.25;97623.06;5111467;28;20056;-77
2022/09/29 13:37:47;;;;;;;1.95;1.02;;;;;;;14.74;52.81;97629.69;5109676;28;20039;-77
2022/09/29 13:40:20;;;;;;;2.25;0.95;;;;;;;14.96;53.21;97622.34;5101052;28;20047;-77
2022/09/29 13:42:48;;;;;;;3.97;1.08;;;;;;;15.10;52.03;97614.63;5097772;28;20047;-77
2022/09/29 13:45:45;;;;;;;2.17;0.90;;;;;;;15.23;51.76;97616.16;5103579;28;20051;-77
2022/09/29 13:48:46;;;;;;;3.35;0.73;;;;;;;15.27;50.42;97647.44;5102262;28;20047;-76
2022/09/29 13:51:49;;;;;;;4.65;0.85;;;;;;;15.19;53.38;97647.84;5103517;28;20058;-76
2022/09/29 13:54:27;;;;;;;2.80;0.90;;;;;;;14.75;52.95;97625.88;5103376;28;20051;-77
2022/09/29 13:57:01;;;;;;;2.53;1.20;;;;;;;14.64;53.10;97636.63;5095538;28;20054;-77
2022/09/29 13:59:28;;;;;;;0.65;0.60;;;;;;;14.77;55.13;97630.03;5090779;28;20048;-77
2022/09/29 14:01:56;;;;;;;2.72;1.00;;;;;;;14.50;54.28;97652.53;5091010;28;20044;-77
2022/09/29 14:04:43;;;;;;;7.10;1.65;;;;;;;14.71;55.40;97644.69;5090104;28;20138;-76
2022/09/29 14:07:14;;;;;;;1.95;0.80;;;;;;;14.73;55.99;97623.38;5101868;28;20044;-77
2022/09/29 14:09:44;;;;;;;8.02;1.10;;;;;;;14.88;55.83;97652.88;5110939;28;20044;-77
2022/09/29 14:12:19;;;;;;;1.50;0.90;;;;;;;14.82;55.40;97623.81;5090275;28;20052;-77
2022/09/29 14:14:52;;;;;;;1.73;0.85;;;;;;;14.90;54.36;97644.44;5090659;28;20131;-76
2022/09/29 14:17:24;;;;;;;4.93;1.00;;;;;;;14.69;55.24;97631.28;5089832;28;20055;-77
2022/09/29 14:20:01;;;;;;;3.53;1.17;;;;;;;14.66;55.91;97637.25;5106866;28;20039;-77
2022/09/29 14:22:54;;;;;;;1.38;0.68;;;;;;;14.86;55.40;97666.00;5104546;28;20056;-76
2022/09/29 14:25:43;;;;;;;3.22;0.82;;;;;;;14.66;55.56;97650.06;5110419;28;20054;-76
2022/09/29 14:28:13;;;;;;;3.65;1.77;;;;;;;14.73;54.84;97672.63;5091110;28;20483;-76
2022/09/29 14:30:44;;;;;;;3.53;1.10;;;;;;;14.66;56.19;97661.00;5094350;28;20051;-76
2022/09/29 14:33:15;;;;;;;3.17;1.00;;;;;;;14.73;56.15;97672.63;5100445;28;20051;-76
2022/09/29 14:35:46;;;;;;;6.43;1.05;;;;;;;14.71;56.16;97654.78;5111284;28;20054;-76
2022/09/29 14:38:17;;;;;;;4.53;1.27;;;;;;;14.48;56.46;97656.56;5112565;28;20054;-76
2022/09/29 14:40:55;;;;;;;3.88;1.15;;;;;;;14.58;57.24;97662.22;5111347;28;20056;-76
2022/09/29 14:43:27;;;;;;;3.70;1.20;;;;;;;14.46;57.14;97662.28;5113697;28;20056;-76
2022/09/29 14:51:59;;;;;;;2.60;1.05;;;;;;;14.21;58.56;97668.16;5111741;28;20551;-76
2022/09/29 14:54:35;;;;;;;4.95;1.10;;;;;;;14.11;59.18;97690.63;5114169;28;20051;-76
2022/09/29 14:57:11;;;;;;;1.30;0.80;;;;;;;14.10;58.82;97680.75;5114353;28;20051;-76
2022/09/29 14:59:51;;;;;;;1.48;1.00;;;;;;;14.15;59.89;97697.28;5114539;28;20513;-76
2022/09/29 15:02:22;;;;;;;3.40;1.35;;;;;;;14.03;59.11;97684.72;5095456;28;20056;-77
2022/09/29 15:04:49;;;;;;;5.97;1.30;;;;;;;14.07;60.04;97685.91;5100898;28;20048;-76
2022/09/29 15:07:20;;;;;;;2.78;1.40;;;;;;;14.09;61.37;97690.06;5111404;28;20048;-76
2022/09/29 15:09:50;;;;;;;3.95;1.20;;;;;;;14.01;59.78;97684.97;5112349;28;20105;-76
2022/09/29 15:12:21;;;;;;;4.70;2.17;;;;;;;14.09;60.54;97697.41;5104885;28;20070;-76
2022/09/29 15:14:49;;;;;;;5.85;2.65;;;;;;;13.87;60.49;97689.06;5110570;28;20071;-76
2022/09/29 15:17:28;;;;;;;10.80;5.60;;;;;;;14.07;60.43;97705.03;5110426;28;20051;-76
2022/09/29 15:20:07;;;;;;;5.13;2.38;;;;;;;14.09;59.32;97692.78;5109505;28;20071;-76
2022/09/29 15:23:15;;;;;;;3.35;1.50;;;;;;;13.85;58.93;97680.25;5110509;28;20063;-76
2022/09/29 15:25:44;;;;;;;3.85;1.42;;;;;;;14.02;59.91;97705.75;5047333;28;20049;-76
2022/09/29 15:28:15;;;;;;;4.82;1.33;;;;;;;13.81;59.91;97696.31;5042738;28;20887;-76
2022/09/29 15:30:42;;;;;;;3.47;1.30;;;;;;;13.85;59.95;97708.44;5070781;28;20515;-76
2022/09/29 15:33:19;;;;;;;5.07;1.23;;;;;;;13.75;61.73;97709.03;5103759;28;20055;-77
